Time;durP1;ratioP1;P1;durP2;ratioP2;P2;SDS_P1;SDS_P2;PMS_P1;PMS_P2;Temp;Humidity;BMP_temperature;BMP_pressure;BME280_temperature;BME280_humidity;BME280_pressure;Samples;Min_cycle;Max_cycle;Signal;HPM_P1;HPM_P2
2022/04/08 00:00:10;;;;;;;;;;;23.30;43.60;;;;;;1695435;69;729;-63
2022/04/08 00:02:13;;;;;;;;;;;23.30;43.60;;;;;;1684235;69;1158;-62
2022/04/08 00:04:15;;;;;;;;;;;23.40;43.60;;;;;;1698209;69;751;-62
2022/04/08 00:06:17;;;;;;;;;;;23.30;43.60;;;;;;1685274;69;708;-61
2022/04/08 00:08:19;;;;;;;;;;;23.30;43.50;;;;;;1680870;69;752;-62
2022/04/08 00:10:21;;;;;;;;;;;23.30;43.60;;;;;;1695659;69;764;-63
2022/04/08 00:12:23;;;;;;;;;;;23.30;43.50;;;;;;1690375;69;1929;-62
2022/04/08 00:14:25;;;;;;;;;;;23.30;43.50;;;;;;1699920;69;781;-63
2022/04/08 00:16:27;;;;;;;;;;;23.30;43.50;;;;;;1681391;69;686;-62
2022/04/08 00:18:29;;;;;;;;;;;23.30;43.50;;;;;;1687063;69;647;-62
2022/04/08 00:20:32;;;;;;;;;;;23.30;43.60;;;;;;1684061;69;713;-62
2022/04/08 00:22:38;;;;;;;;;;;23.30;43.50;;;;;;1709952;69;1175;-61
2022/04/08 00:24:39;;;;;;;;;;;23.30;43.60;;;;;;1687310;69;1590;-63
2022/04/08 00:26:42;;;;;;;;;;;23.30;43.60;;;;;;1684961;69;785;-62
2022/04/08 00:28:45;;;;;;;;;;;23.30;43.60;;;;;;1685993;69;759;-65
2022/04/08 00:30:47;;;;;;;;;;;23.30;43.60;;;;;;1687219;69;1917;-62
2022/04/08 00:32:51;;;;;;;;;;;23.30;43.60;;;;;;1685598;69;1150;-62
2022/04/08 00:34:53;;;;;;;;;;;23.30;43.60;;;;;;1690834;69;707;-63
2022/04/08 00:36:55;;;;;;;;;;;23.30;43.60;;;;;;1682751;69;756;-62
2022/04/08 00:38:57;;;;;;;;;;;23.30;43.60;;;;;;1688943;69;756;-63
2022/04/08 00:40:59;;;;;;;;;;;23.30;43.60;;;;;;1688582;69;761;-63
2022/04/08 00:43:12;;;;;;;;;;;23.30;43.60;;;;;;1644784;69;3205;-63
2022/04/08 00:45:13;;;;;;;;;;;23.30;43.60;;;;;;1573717;75;1087;-62
2022/04/08 00:47:15;;;;;;;;;;;23.40;43.60;;;;;;1570637;75;812;-63
2022/04/08 00:49:17;;;;;;;;;;;23.30;43.60;;;;;;1574986;75;717;-63
2022/04/08 00:51:19;;;;;;;;;;;23.30;43.60;;;;;;1566484;75;1942;-63
2022/04/08 00:53:21;;;;;;;;;;;23.30;43.60;;;;;;1553737;74;1199;-63
2022/04/08 00:55:23;;;;;;;;;;;23.30;43.50;;;;;;1539103;75;718;-63
2022/04/08 00:57:25;;;;;;;;;;;23.30;43.60;;;;;;1535440;75;809;-63
2022/04/08 00:59:27;;;;;;;;;;;23.30;43.60;;;;;;1538223;75;703;-64
2022/04/08 01:01:29;;;;;;;;;;;23.30;43.60;;;;;;1540712;75;806;-62
2022/04/08 01:03:31;;;;;;;;;;;23.30;43.60;;;;;;1545557;75;1159;-63
2022/04/08 01:05:33;;;;;;;;;;;23.30;43.60;;;;;;1539466;75;715;-63
2022/04/08 01:07:35;;;;;;;;;;;23.30;43.60;;;;;;1536564;75;794;-62
2022/04/08 01:09:36;;;;;;;;;;;23.30;43.60;;;;;;1541142;75;777;-65
2022/04/08 01:11:38;;;;;;;;;;;23.30;43.60;;;;;;1542253;75;1928;-63
2022/04/08 01:13:40;;;;;;;;;;;23.20;43.60;;;;;;1548544;75;1126;-62
2022/04/08 01:15:42;;;;;;;;;;;23.30;43.70;;;;;;1548008;75;760;-64
2022/04/08 01:17:44;;;;;;;;;;;23.20;43.60;;;;;;1541673;75;798;-65
2022/04/08 01:19:46;;;;;;;;;;;23.30;43.70;;;;;;1547229;75;794;-62
2022/04/08 01:21:48;;;;;;;;;;;23.20;43.70;;;;;;1538267;75;783;-61
2022/04/08 01:23:50;;;;;;;;;;;23.30;43.70;;;;;;1542590;75;1149;-62
2022/04/08 01:25:52;;;;;;;;;;;23.20;43.60;;;;;;1539224;75;906;-61
2022/04/08 01:27:54;;;;;;;;;;;23.30;43.70;;;;;;1539428;75;735;-62
2022/04/08 01:29:56;;;;;;;;;;;23.30;43.70;;;;;;1543646;75;774;-62
2022/04/08 01:31:57;;;;;;;;;;;23.20;43.50;;;;;;1539336;75;1955;-64
2022/04/08 01:33:59;;;;;;;;;;;23.30;43.60;;;;;;1547911;75;1154;-61
2022/04/08 01:36:01;;;;;;;;;;;23.30;43.60;;;;;;1547874;75;804;-64
2022/04/08 01:38:03;;;;;;;;;;;23.30;43.60;;;;;;1550876;75;736;-61
2022/04/08 01:40:05;;;;;;;;;;;23.20;43.50;;;;;;1545760;75;789;-62
2022/04/08 01:42:07;;;;;;;;;;;23.30;43.60;;;;;;1543397;75;1156;-62
2022/04/08 01:44:09;;;;;;;;;;;23.20;43.50;;;;;;1552650;75;938;-62
2022/04/08 01:46:11;;;;;;;;;;;23.20;43.60;;;;;;1542663;75;769;-63
2022/04/08 01:48:13;;;;;;;;;;;23.30;43.60;;;;;;1546423;75;743;-62
2022/04/08 01:50:18;;;;;;;;;;;23.20;43.60;;;;;;1548107;75;777;-63
2022/04/08 01:52:19;;;;;;;;;;;23.20;43.60;;;;;;1551015;75;1932;-63
2022/04/08 01:54:20;;;;;;;;;;;23.20;43.60;;;;;;1553279;75;875;-63
2022/04/08 01:56:22;;;;;;;;;;;23.30;43.70;;;;;;1549707;75;739;-63
2022/04/08 01:58:24;;;;;;;;;;;23.20;43.60;;;;;;1553711;75;774;-62
2022/04/08 02:00:26;;;;;;;;;;;23.20;43.60;;;;;;1553612;75;808;-62
2022/04/08 02:02:28;;;;;;;;;;;23.20;43.60;;;;;;1552756;75;1124;-62
2022/04/08 02:04:30;;;;;;;;;;;23.20;43.60;;;;;;1553322;75;911;-63
2022/04/08 02:06:32;;;;;;;;;;;23.20;43.60;;;;;;1553673;75;741;-63
2022/04/08 02:08:34;;;;;;;;;;;23.30;43.70;;;;;;1553721;75;683;-62
2022/04/08 02:10:36;;;;;;;;;;;23.20;43.60;;;;;;1553786;75;673;-61
2022/04/08 02:12:38;;;;;;;;;;;23.20;43.60;;;;;;1553161;75;1941;-64
2022/04/08 02:14:39;;;;;;;;;;;23.20;43.60;;;;;;1553584;75;733;-62
2022/04/08 02:16:41;;;;;;;;;;;23.20;43.60;;;;;;1553504;75;769;-60
2022/04/08 02:18:43;;;;;;;;;;;23.20;43.60;;;;;;1548011;75;718;-61
2022/04/08 02:20:45;;;;;;;;;;;23.20;43.60;;;;;;1553080;75;722;-62
2022/04/08 02:22:47;;;;;;;;;;;23.20;43.60;;;;;;1555760;75;1182;-61
2022/04/08 02:24:50;;;;;;;;;;;23.20;43.60;;;;;;1552022;75;780;-63
2022/04/08 02:26:52;;;;;;;;;;;23.20;43.60;;;;;;1552635;75;744;-63
2022/04/08 02:28:54;;;;;;;;;;;23.20;43.60;;;;;;1552574;75;722;-62
2022/04/08 02:30:57;;;;;;;;;;;23.30;43.70;;;;;;1555607;75;765;-61
2022/04/08 02:33:01;;;;;;;;;;;23.30;43.70;;;;;;1553303;75;1907;-64
2022/04/08 02:35:02;;;;;;;;;;;23.30;43.60;;;;;;1552338;75;1732;-65
2022/04/08 02:37:05;;;;;;;;;;;23.30;43.60;;;;;;1553720;75;719;-61
2022/04/08 02:39:07;;;;;;;;;;;23.30;43.60;;;;;;1553112;75;717;-61
2022/04/08 02:41:09;;;;;;;;;;;23.40;43.60;;;;;;1551146;75;707;-63
2022/04/08 02:43:11;;;;;;;;;;;23.40;43.50;;;;;;1555118;75;1086;-62
2022/04/08 02:45:13;;;;;;;;;;;23.40;43.40;;;;;;1560188;75;797;-61
2022/04/08 02:47:15;;;;;;;;;;;23.50;43.40;;;;;;1553664;75;767;-62
2022/04/08 02:49:17;;;;;;;;;;;23.50;43.40;;;;;;1553704;75;752;-62
2022/04/08 02:51:18;;;;;;;;;;;23.60;43.40;;;;;;1553687;75;658;-64
2022/04/08 02:53:20;;;;;;;;;;;23.60;43.30;;;;;;1553744;75;1929;-63
2022/04/08 02:55:22;;;;;;;;;;;23.70;43.20;;;;;;1556606;75;904;-64
2022/04/08 02:57:24;;;;;;;;;;;23.70;43.10;;;;;;1552420;75;734;-64
2022/04/08 02:59:26;;;;;;;;;;;23.70;43.20;;;;;;1552457;75;714;-62
2022/04/08 03:01:28;;;;;;;;;;;23.70;43.10;;;;;;1556874;75;717;-64
2022/04/08 03:03:30;;;;;;;;;;;23.80;43.00;;;;;;1556665;74;1129;-62
2022/04/08 03:05:32;;;;;;;;;;;23.70;42.90;;;;;;1547491;75;683;-62
2022/04/08 03:07:33;;;;;;;;;;;23.70;43.00;;;;;;1552257;75;706;-62
2022/04/08 03:09:40;;;;;;;;;;;23.70;43.10;;;;;;1553062;75;661;-63
2022/04/08 03:11:39;;;;;;;;;;;23.70;43.10;;;;;;1552107;75;1920;-65
2022/04/08 03:13:41;;;;;;;;;;;23.70;43.10;;;;;;1552337;75;1121;-62
2022/04/08 03:15:43;;;;;;;;;;;23.70;43.10;;;;;;1552275;75;897;-65
2022/04/08 03:17:45;;;;;;;;;;;23.80;43.10;;;;;;1552209;75;762;-65
2022/04/08 03:19:47;;;;;;;;;;;23.70;43.10;;;;;;1552936;75;742;-64
2022/04/08 03:21:49;;;;;;;;;;;23.70;43.00;;;;;;1556850;75;797;-61
2022/04/08 03:23:51;;;;;;;;;;;23.70;43.10;;;;;;1556360;75;1155;-62
2022/04/08 03:25:53;;;;;;;;;;;23.70;43.00;;;;;;1560890;75;796;-62
2022/04/08 03:27:55;;;;;;;;;;;23.70;43.00;;;;;;1571560;75;727;-62
2022/04/08 03:29:57;;;;;;;;;;;23.70;43.00;;;;;;1557513;75;730;-63
2022/04/08 03:31:58;;;;;;;;;;;23.80;43.00;;;;;;1558194;75;1931;-65
2022/04/08 03:34:02;;;;;;;;;;;23.80;42.90;;;;;;1544160;75;1144;-63
2022/04/08 03:36:04;;;;;;;;;;;23.80;42.80;;;;;;1541504;75;724;-62
2022/04/08 03:38:06;;;;;;;;;;;23.80;42.80;;;;;;1552266;75;719;-65
2022/04/08 03:40:09;;;;;;;;;;;23.80;42.80;;;;;;1553019;75;765;-61
2022/04/08 03:42:11;;;;;;;;;;;23.80;42.70;;;;;;1554390;74;1183;-63
2022/04/08 03:44:13;;;;;;;;;;;23.80;42.80;;;;;;1559537;75;873;-64
2022/04/08 03:46:16;;;;;;;;;;;23.80;42.70;;;;;;1541016;75;684;-62
2022/04/08 03:48:18;;;;;;;;;;;23.80;42.70;;;;;;1548126;75;782;-65
2022/04/08 03:50:20;;;;;;;;;;;23.80;42.70;;;;;;1548712;75;781;-62
2022/04/08 03:52:22;;;;;;;;;;;23.80;42.80;;;;;;1540784;75;1959;-61
2022/04/08 03:54:24;;;;;;;;;;;23.70;42.80;;;;;;1536682;75;562;-64
2022/04/08 03:56:25;;;;;;;;;;;23.70;42.80;;;;;;1545098;75;773;-62
2022/04/08 03:58:27;;;;;;;;;;;23.70;42.80;;;;;;1540805;75;741;-62
2022/04/08 04:00:29;;;;;;;;;;;23.70;42.90;;;;;;1540511;75;812;-60
2022/04/08 04:02:31;;;;;;;;;;;23.60;42.90;;;;;;1549539;75;1141;-62
2022/04/08 04:04:34;;;;;;;;;;;23.70;43.00;;;;;;1560512;75;714;-65
2022/04/08 04:06:36;;;;;;;;;;;23.60;42.90;;;;;;1545280;75;694;-67
2022/04/08 04:08:38;;;;;;;;;;;23.70;43.10;;;;;;1544289;75;759;-69
2022/04/08 04:10:40;;;;;;;;;;;23.60;43.10;;;;;;1550330;75;763;-67
2022/04/08 04:12:42;;;;;;;;;;;23.60;43.10;;;;;;1550694;75;1927;-64
2022/04/08 04:14:44;;;;;;;;;;;23.60;43.10;;;;;;1530734;75;799;-64
2022/04/08 04:16:46;;;;;;;;;;;23.60;43.20;;;;;;1543690;75;754;-66
2022/04/08 04:18:48;;;;;;;;;;;23.50;43.30;;;;;;1551786;75;830;-65
2022/04/08 04:20:50;;;;;;;;;;;23.60;43.30;;;;;;1540817;75;795;-67
2022/04/08 04:22:53;;;;;;;;;;;23.60;43.40;;;;;;1534521;75;1193;-64
2022/04/08 04:24:55;;;;;;;;;;;23.50;43.30;;;;;;1553262;75;762;-67
2022/04/08 04:26:57;;;;;;;;;;;23.50;43.40;;;;;;1540374;75;835;-64
2022/04/08 04:28:59;;;;;;;;;;;23.50;43.50;;;;;;1555885;75;834;-65
2022/04/08 04:31:03;;;;;;;;;;;23.60;43.50;;;;;;1553901;75;717;-64
2022/04/08 04:33:07;;;;;;;;;;;23.50;43.50;;;;;;1552405;75;1931;-65
2022/04/08 04:35:08;;;;;;;;;;;23.60;43.40;;;;;;1551560;75;1632;-63
2022/04/08 04:37:10;;;;;;;;;;;23.60;43.40;;;;;;1551404;75;772;-66
2022/04/08 04:39:12;;;;;;;;;;;23.50;43.50;;;;;;1551317;75;822;-66
2022/04/08 04:41:15;;;;;;;;;;;23.60;43.50;;;;;;1551226;75;720;-67
2022/04/08 04:43:17;;;;;;;;;;;23.60;43.40;;;;;;1551136;75;1119;-65
2022/04/08 04:45:19;;;;;;;;;;;23.60;43.40;;;;;;1551224;75;798;-69
2022/04/08 04:47:21;;;;;;;;;;;23.60;43.50;;;;;;1546160;75;746;-68
2022/04/08 04:49:23;;;;;;;;;;;23.50;43.50;;;;;;1548066;75;784;-67
2022/04/08 04:51:26;;;;;;;;;;;23.60;43.60;;;;;;1550686;75;783;-63
2022/04/08 04:53:28;;;;;;;;;;;23.70;43.70;;;;;;1550513;75;1939;-64
2022/04/08 04:55:30;;;;;;;;;;;23.60;43.60;;;;;;1533854;75;785;-65
2022/04/08 04:57:32;;;;;;;;;;;23.70;43.50;;;;;;1540771;75;698;-64
2022/04/08 04:59:34;;;;;;;;;;;23.80;43.40;;;;;;1541411;75;802;-63
2022/04/08 05:01:36;;;;;;;;;;;23.70;43.40;;;;;;1546977;75;712;-64
2022/04/08 05:03:37;;;;;;;;;;;23.70;43.50;;;;;;1540124;75;1139;-63
2022/04/08 05:05:39;;;;;;;;;;;23.70;43.50;;;;;;1532601;75;731;-65
2022/04/08 05:07:41;;;;;;;;;;;23.60;43.40;;;;;;1540619;75;752;-64
2022/04/08 05:09:43;;;;;;;;;;;23.70;43.50;;;;;;1541816;75;784;-64
2022/04/08 05:11:45;;;;;;;;;;;23.60;43.30;;;;;;1540838;75;723;-65
2022/04/08 05:13:47;;;;;;;;;;;23.70;43.40;;;;;;1543602;75;1968;-64
2022/04/08 05:15:49;;;;;;;;;;;23.60;43.20;;;;;;1532236;75;769;-64
2022/04/08 05:17:51;;;;;;;;;;;23.60;43.20;;;;;;1540652;75;779;-65
2022/04/08 05:19:53;;;;;;;;;;;23.60;43.20;;;;;;1550889;75;722;-64
2022/04/08 05:21:54;;;;;;;;;;;23.60;43.10;;;;;;1540246;75;888;-64
2022/04/08 05:23:56;;;;;;;;;;;23.70;43.10;;;;;;1540454;75;1130;-61
2022/04/08 05:25:58;;;;;;;;;;;23.70;43.10;;;;;;1544147;75;698;-65
2022/04/08 05:28:00;;;;;;;;;;;23.60;42.90;;;;;;1540777;75;715;-66
2022/04/08 05:30:12;;;;;;;;;;;23.50;43.30;;;;;;1552172;75;787;-67
2022/04/08 05:32:14;;;;;;;;;;;23.40;43.40;;;;;;1547563;75;1085;-66
2022/04/08 05:34:16;;;;;;;;;;;23.30;43.70;;;;;;1553042;75;1931;-67
2022/04/08 05:36:18;;;;;;;;;;;23.40;43.80;;;;;;1549032;75;711;-62
2022/04/08 05:38:20;;;;;;;;;;;23.60;43.60;;;;;;1545081;75;714;-64
2022/04/08 05:40:22;;;;;;;;;;;23.70;43.30;;;;;;1540603;75;730;-63
2022/04/08 05:42:24;;;;;;;;;;;23.70;43.10;;;;;;1545878;75;1133;-64
2022/04/08 05:44:25;;;;;;;;;;;23.90;43.10;;;;;;1545885;75;732;-63
2022/04/08 05:46:27;;;;;;;;;;;23.80;42.80;;;;;;1560468;75;800;-63
2022/04/08 05:48:29;;;;;;;;;;;23.80;42.80;;;;;;1546526;75;806;-63
2022/04/08 05:50:31;;;;;;;;;;;23.70;42.80;;;;;;1551179;75;781;-63
2022/04/08 05:52:33;;;;;;;;;;;23.70;42.80;;;;;;1552612;75;1164;-64
2022/04/08 05:54:35;;;;;;;;;;;23.70;42.90;;;;;;1553067;75;1942;-67
2022/04/08 05:56:37;;;;;;;;;;;23.80;42.80;;;;;;1553617;75;662;-64
2022/04/08 05:58:38;;;;;;;;;;;23.80;42.60;;;;;;1540816;75;839;-65
2022/04/08 06:00:40;;;;;;;;;;;23.70;42.50;;;;;;1553551;75;724;-64
2022/04/08 06:02:47;;;;;;;;;;;23.80;42.50;;;;;;1543262;75;1160;-64
2022/04/08 06:04:46;;;;;;;;;;;23.70;42.40;;;;;;1546036;75;1863;-67
2022/04/08 06:06:48;;;;;;;;;;;23.80;42.50;;;;;;1543746;75;749;-65
2022/04/08 06:08:50;;;;;;;;;;;23.80;42.40;;;;;;1549431;75;746;-65
2022/04/08 06:10:52;;;;;;;;;;;23.70;42.60;;;;;;1552693;75;728;-65
2022/04/08 06:12:59;;;;;;;;;;;23.70;42.60;;;;;;1555675;75;1944;-64
2022/04/08 06:14:59;;;;;;;;;;;23.70;42.60;;;;;;1550359;75;1381;-61
2022/04/08 06:17:00;;;;;;;;;;;23.60;42.50;;;;;;1553536;75;779;-65
2022/04/08 06:19:02;;;;;;;;;;;23.60;42.50;;;;;;1553040;75;771;-62
2022/04/08 06:21:04;;;;;;;;;;;23.60;42.50;;;;;;1548467;75;761;-62
2022/04/08 06:23:06;;;;;;;;;;;23.60;42.60;;;;;;1539794;75;1154;-62
2022/04/08 06:25:08;;;;;;;;;;;23.60;42.60;;;;;;1546908;75;719;-62
2022/04/08 06:27:10;;;;;;;;;;;23.70;42.60;;;;;;1547458;75;722;-61
2022/04/08 06:29:12;;;;;;;;;;;23.70;42.50;;;;;;1549526;75;762;-61
2022/04/08 06:31:14;;;;;;;;;;;23.70;42.40;;;;;;1546554;75;805;-62
2022/04/08 06:33:16;;;;;;;;;;;23.70;42.30;;;;;;1556639;75;1942;-62
2022/04/08 06:35:18;;;;;;;;;;;23.70;42.20;;;;;;1545766;75;731;-62
2022/04/08 06:37:20;;;;;;;;;;;23.80;42.20;;;;;;1549668;75;650;-65
2022/04/08 06:39:22;;;;;;;;;;;23.70;42.10;;;;;;1552144;75;772;-63
2022/04/08 06:41:24;;;;;;;;;;;23.80;42.10;;;;;;1540716;75;872;-61
2022/04/08 06:43:26;;;;;;;;;;;23.70;42.10;;;;;;1562037;74;2075;-64
2022/04/08 06:45:27;;;;;;;;;;;23.70;42.20;;;;;;1563821;75;722;-65
2022/04/08 06:47:29;;;;;;;;;;;23.60;42.10;;;;;;1560505;75;734;-65
2022/04/08 06:49:31;;;;;;;;;;;23.60;42.30;;;;;;1562796;75;663;-64
2022/04/08 06:51:33;;;;;;;;;;;23.50;42.40;;;;;;1572983;75;801;-63
2022/04/08 06:53:35;;;;;;;;;;;23.50;42.50;;;;;;1559227;74;1932;-64
2022/04/08 06:55:37;;;;;;;;;;;23.40;42.50;;;;;;1559032;74;680;-64
2022/04/08 06:57:39;;;;;;;;;;;23.40;42.60;;;;;;1557809;75;618;-65
2022/04/08 06:59:41;;;;;;;;;;;23.50;42.80;;;;;;1557359;75;761;-65
2022/04/08 07:01:43;;;;;;;;;;;23.40;42.60;;;;;;1558313;75;860;-64
2022/04/08 07:03:45;;;;;;;;;;;23.50;42.70;;;;;;1568638;74;1139;-62
2022/04/08 07:05:47;;;;;;;;;;;23.50;42.60;;;;;;1567932;75;811;-63
2022/04/08 07:07:49;;;;;;;;;;;23.50;42.50;;;;;;1565608;75;787;-64
2022/04/08 07:09:52;;;;;;;;;;;23.50;42.60;;;;;;1564227;74;792;-65
2022/04/08 07:11:54;;;;;;;;;;;23.40;42.40;;;;;;1554858;75;679;-63
2022/04/08 07:13:55;;;;;;;;;;;23.30;42.60;;;;;;1566578;74;1938;-64
2022/04/08 07:15:57;;;;;;;;;;;23.40;42.80;;;;;;1558056;75;776;-65
2022/04/08 07:17:59;;;;;;;;;;;23.20;42.70;;;;;;1567818;75;808;-67
2022/04/08 07:20:01;;;;;;;;;;;23.20;42.80;;;;;;1565302;75;751;-65
2022/04/08 07:22:03;;;;;;;;;;;23.20;42.90;;;;;;1569841;75;733;-65
2022/04/08 07:24:05;;;;;;;;;;;23.20;43.00;;;;;;1566239;75;1121;-66
2022/04/08 07:26:07;;;;;;;;;;;23.20;43.00;;;;;;1562137;75;630;-65
2022/04/08 07:28:10;;;;;;;;;;;23.10;43.10;;;;;;1558738;75;782;-67
2022/04/08 07:30:12;;;;;;;;;;;23.10;43.10;;;;;;1560118;75;729;-65
2022/04/08 07:32:20;;;;;;;;;;;23.10;43.10;;;;;;1566809;75;749;-63
2022/04/08 07:34:17;;;;;;;;;;;23.10;43.10;;;;;;1560483;75;1937;-65
2022/04/08 07:36:19;;;;;;;;;;;23.10;43.30;;;;;;1557854;75;740;-66
2022/04/08 07:38:22;;;;;;;;;;;23.20;43.20;;;;;;1562238;75;728;-64
2022/04/08 07:40:25;;;;;;;;;;;23.10;43.30;;;;;;1558166;75;725;-63
2022/04/08 07:42:27;;;;;;;;;;;23.00;43.10;;;;;;1571436;74;1155;-64
2022/04/08 07:44:29;;;;;;;;;;;23.00;43.10;;;;;;1577589;75;769;-65
2022/04/08 07:46:31;;;;;;;;;;;23.10;43.30;;;;;;1578541;75;772;-63
2022/04/08 07:48:33;;;;;;;;;;;23.00;43.10;;;;;;1578832;75;690;-64
2022/04/08 07:50:37;;;;;;;;;;;23.10;43.30;;;;;;1576038;75;674;-63
2022/04/08 07:52:39;;;;;;;;;;;23.00;43.20;;;;;;1557650;74;1727;-64
2022/04/08 07:54:43;;;;;;;;;;;23.10;43.30;;;;;;1565832;74;1935;-67
2022/04/08 07:56:45;;;;;;;;;;;23.10;43.40;;;;;;1578566;75;736;-65
2022/04/08 07:58:48;;;;;;;;;;;23.00;43.20;;;;;;1578114;74;741;-63
2022/04/08 08:00:53;;;;;;;;;;;23.00;43.20;;;;;;1577893;74;780;-64
2022/04/08 08:02:53;;;;;;;;;;;23.00;43.30;;;;;;1577755;74;1790;-64
2022/04/08 08:04:55;;;;;;;;;;;23.00;43.30;;;;;;1566442;75;755;-63
2022/04/08 08:06:57;;;;;;;;;;;23.10;43.40;;;;;;1572641;74;770;-61
2022/04/08 08:08:59;;;;;;;;;;;23.00;43.30;;;;;;1576721;74;830;-67
2022/04/08 08:11:02;;;;;;;;;;;23.00;43.30;;;;;;1574803;75;693;-64
2022/04/08 08:13:04;;;;;;;;;;;23.00;43.40;;;;;;1579254;74;1128;-66
2022/04/08 08:15:06;;;;;;;;;;;23.00;43.40;;;;;;1575320;75;1920;-66
2022/04/08 08:17:08;;;;;;;;;;;23.00;43.40;;;;;;1579436;74;782;-64
2022/04/08 08:19:11;;;;;;;;;;;23.00;43.40;;;;;;1571604;74;843;-64
2022/04/08 08:21:13;;;;;;;;;;;22.90;43.40;;;;;;1567290;75;802;-64
2022/04/08 08:23:15;;;;;;;;;;;23.00;43.40;;;;;;1579716;74;1182;-64
2022/04/08 08:25:18;;;;;;;;;;;23.00;43.40;;;;;;1575409;75;679;-64
2022/04/08 08:27:19;;;;;;;;;;;23.00;43.40;;;;;;1579344;74;779;-63
2022/04/08 08:29:21;;;;;;;;;;;23.00;43.40;;;;;;1579687;75;778;-65
2022/04/08 08:31:23;;;;;;;;;;;22.90;43.40;;;;;;1575277;74;719;-65
2022/04/08 08:33:25;;;;;;;;;;;22.90;43.50;;;;;;1577065;74;1130;-65
2022/04/08 08:35:27;;;;;;;;;;;23.00;43.40;;;;;;1578581;74;1924;-67
2022/04/08 08:37:29;;;;;;;;;;;22.90;43.40;;;;;;1579459;75;771;-64
2022/04/08 08:39:32;;;;;;;;;;;22.90;43.40;;;;;;1573424;75;814;-64
2022/04/08 08:41:34;;;;;;;;;;;22.90;43.50;;;;;;1579598;74;773;-65
2022/04/08 08:43:36;;;;;;;;;;;22.90;43.40;;;;;;1563647;74;1130;-66
2022/04/08 08:45:40;;;;;;;;;;;22.90;43.40;;;;;;1574599;74;771;-63
2022/04/08 08:47:43;;;;;;;;;;;23.00;43.60;;;;;;1563354;74;2279;-66
2022/04/08 08:49:47;;;;;;;;;;;23.00;43.40;;;;;;1561531;75;1861;-64
2022/04/08 08:51:58;;;;;;;;;;;23.00;43.40;;;;;;1557452;74;1793;-64
2022/04/08 08:54:00;;;;;;;;;;;22.90;43.60;;;;;;1563962;75;1938;-67
2022/04/08 08:56:02;;;;;;;;;;;23.00;43.60;;;;;;1561929;74;734;-63
2022/04/08 08:58:04;;;;;;;;;;;23.00;43.60;;;;;;1579363;74;973;-63
2022/04/08 09:00:12;;;;;;;;;;;22.80;43.40;;;;;;1579688;74;781;-63
2022/04/08 09:02:12;;;;;;;;;;;23.00;43.60;;;;;;1577693;75;1625;-64
2022/04/08 09:04:14;;;;;;;;;;;22.90;43.70;;;;;;1575850;74;1079;-63
2022/04/08 09:06:17;;;;;;;;;;;22.90;43.60;;;;;;1574584;74;774;-63
2022/04/08 09:08:19;;;;;;;;;;;22.90;43.60;;;;;;1578885;75;655;-67
2022/04/08 09:10:26;;;;;;;;;;;23.00;43.60;;;;;;1570427;74;746;-66
2022/04/08 09:12:28;;;;;;;;;;;23.00;43.60;;;;;;1572735;74;1159;-63
2022/04/08 09:14:34;;;;;;;;;;;23.00;43.50;;;;;;1579313;74;1911;-64
2022/04/08 09:16:38;;;;;;;;;;;23.00;43.60;;;;;;1564305;75;1651;-65
2022/04/08 09:18:44;;;;;;;;;;;23.00;43.60;;;;;;1574770;75;733;-63
2022/04/08 09:20:45;;;;;;;;;;;22.90;43.90;;;;;;1566108;74;1393;-63
2022/04/08 09:22:56;;;;;;;;;;;22.90;43.70;;;;;;1575497;74;1083;-62
2022/04/08 09:25:11;;;;;;;;;;;23.00;43.60;;;;;;1578628;74;660;-61
2022/04/08 09:27:12;;;;;;;;;;;23.00;43.60;;;;;;1570892;75;715;-64
2022/04/08 09:29:14;;;;;;;;;;;23.00;43.60;;;;;;1575547;75;740;-65
2022/04/08 09:31:18;;;;;;;;;;;23.00;43.50;;;;;;1578993;74;810;-65
2022/04/08 09:33:21;;;;;;;;;;;23.00;43.60;;;;;;1575900;75;1198;-65
2022/04/08 09:35:27;;;;;;;;;;;23.00;43.70;;;;;;1567550;75;1922;-64
2022/04/08 09:37:26;;;;;;;;;;;23.00;43.70;;;;;;1567451;74;1217;-63
2022/04/08 09:39:28;;;;;;;;;;;23.00;43.60;;;;;;1578453;75;648;-64
2022/04/08 09:41:43;;;;;;;;;;;23.00;43.60;;;;;;1572185;74;750;-65
2022/04/08 09:43:44;;;;;;;;;;;23.00;43.60;;;;;;1566781;74;1128;-65
2022/04/08 09:45:46;;;;;;;;;;;23.00;43.60;;;;;;1586758;73;765;-65
2022/04/08 09:47:48;;;;;;;;;;;23.00;43.60;;;;;;1588689;74;778;-64
2022/04/08 09:49:50;;;;;;;;;;;23.00;43.70;;;;;;1592816;73;723;-64
2022/04/08 09:51:54;;;;;;;;;;;23.00;43.70;;;;;;1594678;73;740;-64
2022/04/08 09:53:56;;;;;;;;;;;23.00;43.60;;;;;;1593200;73;1657;-64
2022/04/08 09:55:58;;;;;;;;;;;23.00;43.60;;;;;;1591878;73;1957;-63
2022/04/08 09:58:08;;;;;;;;;;;23.00;43.70;;;;;;1588665;74;729;-63
2022/04/08 10:00:09;;;;;;;;;;;23.00;43.70;;;;;;1586262;73;1663;-73
2022/04/08 10:02:11;;;;;;;;;;;23.00;43.70;;;;;;1586922;73;688;-64
2022/04/08 10:04:13;;;;;;;;;;;23.00;43.50;;;;;;1571384;74;1060;-65
2022/04/08 10:06:15;;;;;;;;;;;23.20;43.30;;;;;;1592725;73;644;-64
2022/04/08 10:08:17;;;;;;;;;;;23.20;43.20;;;;;;1593067;74;756;-68
2022/04/08 10:10:30;;;;;;;;;;;23.10;43.30;;;;;;1588489;74;765;-63
2022/04/08 10:12:39;;;;;;;;;;;23.20;43.20;;;;;;1591811;73;1130;-63
2022/04/08 10:14:54;;;;;;;;;;;23.00;43.20;;;;;;1589030;74;1921;-65
2022/04/08 10:16:56;;;;;;;;;;;23.10;43.40;;;;;;1590108;74;760;-64
2022/04/08 10:19:04;;;;;;;;;;;23.00;43.40;;;;;;1592972;74;771;-63
2022/04/08 10:21:02;;;;;;;;;;;23.10;43.80;;;;;;1589927;74;1447;-66
2022/04/08 10:23:05;;;;;;;;;;;23.10;43.80;;;;;;1586581;73;1169;-64
2022/04/08 10:25:09;;;;;;;;;;;23.00;43.90;;;;;;1581558;74;1069;-63
2022/04/08 10:27:11;;;;;;;;;;;23.00;44.10;;;;;;1587684;74;1642;-63
2022/04/08 10:29:13;;;;;;;;;;;23.00;44.10;;;;;;1587970;74;729;-65
2022/04/08 10:31:19;;;;;;;;;;;23.00;44.30;;;;;;1590102;74;758;-65
2022/04/08 10:33:25;;;;;;;;;;;23.00;44.20;;;;;;1588293;73;1158;-65
2022/04/08 10:35:27;;;;;;;;;;;23.00;44.30;;;;;;1590803;73;1937;-63
2022/04/08 10:37:29;;;;;;;;;;;23.00;44.40;;;;;;1594387;73;807;-65
2022/04/08 10:39:31;;;;;;;;;;;23.00;44.30;;;;;;1586980;74;781;-65
2022/04/08 10:41:34;;;;;;;;;;;23.00;44.50;;;;;;1592639;73;730;-65
2022/04/08 10:43:43;;;;;;;;;;;23.00;44.90;;;;;;1590288;73;1519;-64
2022/04/08 10:45:56;;;;;;;;;;;23.00;44.40;;;;;;1580012;74;783;-64
2022/04/08 10:48:01;;;;;;;;;;;23.00;43.90;;;;;;1591970;73;939;-64
2022/04/08 10:50:04;;;;;;;;;;;23.20;43.90;;;;;;1585641;73;710;-66
2022/04/08 10:52:07;;;;;;;;;;;23.30;43.80;;;;;;1599062;73;890;-66
2022/04/08 10:54:09;;;;;;;;;;;23.30;43.50;;;;;;1599562;72;1110;-64
2022/04/08 10:56:14;;;;;;;;;;;23.40;43.20;;;;;;1584933;73;1924;-64
2022/04/08 10:58:19;;;;;;;;;;;23.50;43.10;;;;;;1593041;73;852;-66
2022/04/08 11:00:22;;;;;;;;;;;23.60;42.90;;;;;;1591678;73;1820;-67
2022/04/08 11:02:24;;;;;;;;;;;23.60;42.80;;;;;;1592816;74;1113;-64
2022/04/08 11:04:27;;;;;;;;;;;23.60;42.80;;;;;;1590637;73;795;-65
2022/04/08 11:06:30;;;;;;;;;;;23.60;42.90;;;;;;1579396;73;710;-65
2022/04/08 11:08:32;;;;;;;;;;;23.70;42.80;;;;;;1590230;74;698;-65
2022/04/08 11:10:34;;;;;;;;;;;23.70;42.70;;;;;;1594456;73;704;-64
2022/04/08 11:12:38;;;;;;;;;;;23.70;42.70;;;;;;1592661;73;1129;-64
2022/04/08 11:14:41;;;;;;;;;;;23.70;42.80;;;;;;1592101;74;1934;-67
2022/04/08 11:16:43;;;;;;;;;;;23.70;42.80;;;;;;1588560;74;820;-65
2022/04/08 11:18:48;;;;;;;;;;;23.80;42.80;;;;;;1588578;74;708;-65
2022/04/08 11:20:50;;;;;;;;;;;23.70;42.80;;;;;;1593231;74;753;-64
2022/04/08 11:22:52;;;;;;;;;;;23.70;42.80;;;;;;1591922;73;1082;-66
2022/04/08 11:24:57;;;;;;;;;;;23.70;42.80;;;;;;1587479;74;721;-66
2022/04/08 11:26:59;;;;;;;;;;;23.70;42.90;;;;;;1591543;73;789;-65
2022/04/08 11:29:11;;;;;;;;;;;23.70;43.00;;;;;;1594871;73;736;-65
2022/04/08 11:31:13;;;;;;;;;;;23.80;43.00;;;;;;1596360;73;760;-65
2022/04/08 11:33:16;;;;;;;;;;;23.70;43.10;;;;;;1576145;74;1127;-65
2022/04/08 11:35:18;;;;;;;;;;;23.70;43.10;;;;;;1592908;73;1939;-65
2022/04/08 11:37:27;;;;;;;;;;;23.80;43.20;;;;;;1595220;73;852;-65
2022/04/08 11:39:33;;;;;;;;;;;23.80;43.50;;;;;;1603190;73;739;-65
2022/04/08 11:41:33;;;;;;;;;;;23.80;43.60;;;;;;1594511;73;1223;-64
2022/04/08 11:43:35;;;;;;;;;;;23.80;43.60;;;;;;1594922;73;1078;-66
2022/04/08 11:45:37;;;;;;;;;;;23.90;43.80;;;;;;1592598;74;807;-64
2022/04/08 11:47:41;;;;;;;;;;;23.90;43.90;;;;;;1601750;73;697;-68
2022/04/08 11:49:43;;;;;;;;;;;24.00;44.00;;;;;;1593667;73;1838;-67
2022/04/08 11:51:45;;;;;;;;;;;23.90;44.20;;;;;;1597436;73;724;-65
2022/04/08 11:53:47;;;;;;;;;;;24.00;44.20;;;;;;1594373;73;1103;-64
2022/04/08 11:55:54;;;;;;;;;;;24.00;44.20;;;;;;1593276;73;1929;-65
2022/04/08 11:57:56;;;;;;;;;;;24.00;44.10;;;;;;1591669;73;1624;-65
2022/04/08 11:59:58;;;;;;;;;;;23.90;44.10;;;;;;1592292;74;744;-64
2022/04/08 12:02:00;;;;;;;;;;;23.90;44.80;;;;;;1599874;73;738;-64
2022/04/08 12:04:03;;;;;;;;;;;23.80;44.60;;;;;;1594907;73;1093;-65
2022/04/08 12:06:04;;;;;;;;;;;23.90;44.30;;;;;;1593385;74;777;-65
2022/04/08 12:08:06;;;;;;;;;;;23.80;44.30;;;;;;1599134;74;773;-64
2022/04/08 12:10:08;;;;;;;;;;;23.80;44.10;;;;;;1565893;74;1190;-64